sensor_id;sensor_type;location;lat;lon;timestamp;pressure;altitude;pressure_sealevel;temperature;humidity
37132;BME280;23035;50.032;21.978;2023-07-30T00:02:16;67165.03;;;18.87;100.00
37132;BME280;23035;50.032;21.978;2023-07-30T00:07:20;67207.28;;;19.32;100.00
37132;BME280;23035;50.032;21.978;2023-07-30T00:12:24;67191.63;;;19.17;100.00
37132;BME280;23035;50.032;21.978;2023-07-30T00:17:30;67207.81;;;19.33;100.00
37132;BME280;23035;50.032;21.978;2023-07-30T00:22:33;67267.72;;;19.87;100.00
37132;BME280;23035;50.032;21.978;2023-07-30T00:27:37;67152.22;;;18.80;100.00
37132;BME280;23035;50.032;21.978;2023-07-30T00:32:43;67179.16;;;19.03;100.00
37132;BME280;23035;50.032;21.978;2023-07-30T00:37:48;67178.06;;;19.02;100.00
37132;BME280;23035;50.032;21.978;2023-07-30T00:42:52;67211.53;;;19.34;100.00
37132;BME280;23035;50.032;21.978;2023-07-30T00:47:57;67278.53;;;19.97;100.00
37132;BME280;23035;50.032;21.978;2023-07-30T00:53:02;67208.28;;;19.31;100.00
37132;BME280;23035;50.032;21.978;2023-07-30T00:58:06;67177.00;;;19.01;100.00
37132;BME280;23035;50.032;21.978;2023-07-30T01:03:12;67249.34;;;19.69;100.00
37132;BME280;23035;50.032;21.978;2023-07-30T01:08:16;67232.66;;;19.56;100.00
37132;BME280;23035;50.032;21.978;2023-07-30T01:13:21;67263.31;;;19.80;100.00
37132;BME280;23035;50.032;21.978;2023-07-30T01:18:28;67195.88;;;19.19;100.00
37132;BME280;23035;50.032;21.978;2023-07-30T01:23:33;67288.78;;;20.07;100.00
37132;BME280;23035;50.032;21.978;2023-07-30T01:28:41;67243.94;;;19.64;100.00
37132;BME280;23035;50.032;21.978;2023-07-30T01:33:48;67247.13;;;19.65;100.00
37132;BME280;23035;50.032;21.978;2023-07-30T01:38:59;67212.69;;;19.37;100.00
37132;BME280;23035;50.032;21.978;2023-07-30T01:44:03;67198.09;;;19.24;100.00
37132;BME280;23035;50.032;21.978;2023-07-30T01:49:08;67220.22;;;19.44;100.00
37132;BME280;23035;50.032;21.978;2023-07-30T01:54:13;67221.31;;;19.45;100.00
37132;BME280;23035;50.032;21.978;2023-07-30T01:59:17;67198.53;;;19.19;100.00
37132;BME280;23035;50.032;21.978;2023-07-30T02:04:21;67146.28;;;18.75;100.00
37132;BME280;23035;50.032;21.978;2023-07-30T02:09:27;67235.31;;;19.56;100.00
37132;BME280;23035;50.032;21.978;2023-07-30T02:14:31;67271.44;;;19.88;100.00
37132;BME280;23035;50.032;21.978;2023-07-30T02:19:36;67171.03;;;18.96;100.00
37132;BME280;23035;50.032;21.978;2023-07-30T02:24:41;67208.78;;;19.29;100.00
37132;BME280;23035;50.032;21.978;2023-07-30T02:29:45;67240.72;;;19.61;100.00
37132;BME280;23035;50.032;21.978;2023-07-30T02:34:49;67167.28;;;18.92;100.00
37132;BME280;23035;50.032;21.978;2023-07-30T02:39:55;67055.03;;;17.86;100.00
37132;BME280;23035;50.032;21.978;2023-07-30T02:45:00;67000.09;;;17.37;100.00
37132;BME280;23035;50.032;21.978;2023-07-30T02:50:05;67031.75;;;17.62;100.00
37132;BME280;23035;50.032;21.978;2023-07-30T02:55:11;67071.69;;;17.99;100.00
37132;BME280;23035;50.032;21.978;2023-07-30T03:00:15;67092.31;;;18.24;100.00
37132;BME280;23035;50.032;21.978;2023-07-30T03:05:20;67147.25;;;18.71;100.00
37132;BME280;23035;50.032;21.978;2023-07-30T03:10:29;67131.03;;;18.55;100.00
37132;BME280;23035;50.032;21.978;2023-07-30T03:15:36;67046.41;;;17.78;100.00
37132;BME280;23035;50.032;21.978;2023-07-30T03:20:43;67131.16;;;18.60;100.00
37132;BME280;23035;50.032;21.978;2023-07-30T03:25:52;67156.00;;;18.84;100.00
37132;BME280;23035;50.032;21.978;2023-07-30T03:30:59;67207.22;;;19.30;100.00
37132;BME280;23035;50.032;21.978;2023-07-30T03:36:06;67154.78;;;18.78;100.00
37132;BME280;23035;50.032;21.978;2023-07-30T03:41:12;67179.22;;;19.06;100.00
37132;BME280;23035;50.032;21.978;2023-07-30T03:46:16;67151.56;;;18.75;100.00
37132;BME280;23035;50.032;21.978;2023-07-30T03:51:20;67198.56;;;19.22;100.00
37132;BME280;23035;50.032;21.978;2023-07-30T03:56:26;67169.56;;;18.99;100.00
37132;BME280;23035;50.032;21.978;2023-07-30T04:01:31;67198.03;;;19.21;100.00
37132;BME280;23035;50.032;21.978;2023-07-30T04:06:35;67100.41;;;18.31;100.00
37132;BME280;23035;50.032;21.978;2023-07-30T04:11:40;67080.47;;;18.13;100.00
37132;BME280;23035;50.032;21.978;2023-07-30T04:16:45;67198.09;;;19.24;100.00
37132;BME280;23035;50.032;21.978;2023-07-30T04:21:51;67248.19;;;19.66;100.00
37132;BME280;23035;50.032;21.978;2023-07-30T04:26:56;67211.59;;;19.36;100.00
37132;BME280;23035;50.032;21.978;2023-07-30T04:32:01;67235.91;;;19.59;100.00
37132;BME280;23035;50.032;21.978;2023-07-30T04:37:05;67221.19;;;19.40;100.00
37132;BME280;23035;50.032;21.978;2023-07-30T04:42:12;67240.72;;;19.61;100.00
37132;BME280;23035;50.032;21.978;2023-07-30T04:47:19;67245.63;;;19.68;100.00
37132;BME280;23035;50.032;21.978;2023-07-30T04:52:23;67289.38;;;20.10;100.00
37132;BME280;23035;50.032;21.978;2023-07-30T04:57:28;67417.94;;;21.28;100.00
37132;BME280;23035;50.032;21.978;2023-07-30T05:02:32;67462.91;;;21.73;100.00
37132;BME280;23035;50.032;21.978;2023-07-30T05:07:37;67305.16;;;20.29;100.00
37132;BME280;23035;50.032;21.978;2023-07-30T05:12:42;67312.59;;;20.31;100.00
37132;BME280;23035;50.032;21.978;2023-07-30T05:17:46;67367.72;;;20.83;100.00
37132;BME280;23035;50.032;21.978;2023-07-30T05:22:50;67404.44;;;21.15;100.00
37132;BME280;23035;50.032;21.978;2023-07-30T05:27:56;67422.88;;;21.35;100.00
37132;BME280;23035;50.032;21.978;2023-07-30T05:33:00;67368.34;;;20.86;100.00
37132;BME280;23035;50.032;21.978;2023-07-30T05:38:05;67395.84;;;21.10;100.00
37132;BME280;23035;50.032;21.978;2023-07-30T05:43:16;67432.53;;;21.42;100.00
37132;BME280;23035;50.032;21.978;2023-07-30T05:48:24;67345.56;;;20.62;100.00
37132;BME280;23035;50.032;21.978;2023-07-30T05:53:28;67301.41;;;20.26;100.00
37132;BME280;23035;50.032;21.978;2023-07-30T05:58:34;67294.16;;;20.12;100.00
37132;BME280;23035;50.032;21.978;2023-07-30T06:03:38;67332.06;;;20.50;100.00
37132;BME280;23035;50.032;21.978;2023-07-30T06:08:42;67404.44;;;21.15;100.00
37132;BME280;23035;50.032;21.978;2023-07-30T06:13:48;67372.53;;;20.85;100.00
37132;BME280;23035;50.032;21.978;2023-07-30T06:18:52;67437.41;;;21.46;100.00
37132;BME280;23035;50.032;21.978;2023-07-30T06:23:56;67377.94;;;20.90;100.00
37132;BME280;23035;50.032;21.978;2023-07-30T06:29:01;67424.44;;;21.34;100.00
37132;BME280;23035;50.032;21.978;2023-07-30T06:34:05;67548.91;;;22.54;100.00
37132;BME280;23035;50.032;21.978;2023-07-30T06:39:09;67565.75;;;22.72;100.00
37132;BME280;23035;50.032;21.978;2023-07-30T06:44:15;67455.88;;;21.66;100.00
37132;BME280;23035;50.032;21.978;2023-07-30T06:49:19;67420.72;;;21.33;100.00
37132;BME280;23035;50.032;21.978;2023-07-30T06:54:24;67485.66;;;21.97;100.00
37132;BME280;23035;50.032;21.978;2023-07-30T06:59:30;67457.53;;;21.70;100.00
37132;BME280;23035;50.032;21.978;2023-07-30T07:04:34;67536.41;;;22.40;100.00
37132;BME280;23035;50.032;21.978;2023-07-30T07:09:38;67498.59;;;22.07;100.00
37132;BME280;23035;50.032;21.978;2023-07-30T07:14:43;67523.47;;;22.30;100.00
37132;BME280;23035;50.032;21.978;2023-07-30T07:19:47;67540.31;;;22.48;100.00
37132;BME280;23035;50.032;21.978;2023-07-30T07:24:54;67576.03;;;22.82;100.00
37132;BME280;23035;50.032;21.978;2023-07-30T07:30:00;67543.44;;;22.46;100.00
37132;BME280;23035;50.032;21.978;2023-07-30T07:35:05;67618.72;;;23.19;100.00
37132;BME280;23035;50.032;21.978;2023-07-30T07:40:10;67628.94;;;23.27;100.00
37132;BME280;23035;50.032;21.978;2023-07-30T07:45:15;67634.44;;;23.34;100.00
37132;BME280;23035;50.032;21.978;2023-07-30T07:50:20;67652.75;;;23.49;100.00
37132;BME280;23035;50.032;21.978;2023-07-30T07:55:24;67560.22;;;22.62;100.00
37132;BME280;23035;50.032;21.978;2023-07-30T08:00:29;67593.28;;;22.96;100.00
37132;BME280;23035;50.032;21.978;2023-07-30T08:05:34;67538.69;;;22.47;100.00
37132;BME280;23035;50.032;21.978;2023-07-30T08:10:38;67566.75;;;22.71;100.00
37132;BME280;23035;50.032;21.978;2023-07-30T08:15:46;67640.38;;;23.40;100.00
37132;BME280;23035;50.032;21.978;2023-07-30T08:20:50;67652.22;;;23.48;100.00
37132;BME280;23035;50.032;21.978;2023-07-30T08:25:54;67607.34;;;23.09;100.00
37132;BME280;23035;50.032;21.978;2023-07-30T08:31:01;67579.22;;;22.82;100.00
37132;BME280;23035;50.032;21.978;2023-07-30T08:36:06;67677.72;;;23.72;100.00
37132;BME280;23035;50.032;21.978;2023-07-30T08:41:10;67639.81;;;23.39;97.55
37132;BME280;23035;50.032;21.978;2023-07-30T08:46:16;67651.22;;;23.50;95.26
37132;BME280;23035;50.032;21.978;2023-07-30T08:51:21;67729.75;;;24.24;95.78
37132;BME280;23035;50.032;21.978;2023-07-30T08:56:26;67710.72;;;24.03;88.59
37132;BME280;23035;50.032;21.978;2023-07-30T09:01:37;67647.38;;;23.44;91.12
37132;BME280;23035;50.032;21.978;2023-07-30T09:06:42;67668.53;;;23.66;89.89
37132;BME280;23035;50.032;21.978;2023-07-30T09:11:51;67790.97;;;24.81;83.66
37132;BME280;23035;50.032;21.978;2023-07-30T09:17:01;67809.88;;;24.97;83.73
37132;BME280;23035;50.032;21.978;2023-07-30T09:22:14;67749.81;;;24.43;80.53
37132;BME280;23035;50.032;21.978;2023-07-30T09:28:04;67740.63;;;24.37;83.21
37132;BME280;23035;50.032;21.978;2023-07-30T09:33:20;67712.47;;;24.10;88.58
37132;BME280;23035;50.032;21.978;2023-07-30T09:38:26;67706.00;;;24.07;85.79
37132;BME280;23035;50.032;21.978;2023-07-30T09:43:34;67762.31;;;24.57;79.69
37132;BME280;23035;50.032;21.978;2023-07-30T09:48:52;67722.16;;;24.17;83.58
37132;BME280;23035;50.032;21.978;2023-07-30T09:53:56;67746.66;;;24.45;81.26
37132;BME280;23035;50.032;21.978;2023-07-30T09:59:00;67776.91;;;24.68;78.29
37132;BME280;23035;50.032;21.978;2023-07-30T10:04:08;67861.44;;;25.48;80.60
37132;BME280;23035;50.032;21.978;2023-07-30T10:09:13;67750.88;;;24.44;82.98
37132;BME280;23035;50.032;21.978;2023-07-30T10:14:22;67834.94;;;25.25;75.44
37132;BME280;23035;50.032;21.978;2023-07-30T10:19:29;67811.09;;;25.03;76.03
37132;BME280;23035;50.032;21.978;2023-07-30T10:24:34;67786.09;;;24.77;76.95
37132;BME280;23035;50.032;21.978;2023-07-30T10:29:39;67796.94;;;24.87;78.65
37132;BME280;23035;50.032;21.978;2023-07-30T10:34:47;67788.81;;;24.79;79.31
37132;BME280;23035;50.032;21.978;2023-07-30T10:39:51;67870.09;;;25.56;77.99
37132;BME280;23035;50.032;21.978;2023-07-30T10:44:57;67952.06;;;26.35;69.69
37132;BME280;23035;50.032;21.978;2023-07-30T10:50:03;67865.25;;;25.51;74.12
37132;BME280;23035;50.032;21.978;2023-07-30T10:55:08;67785.06;;;24.78;77.50
37132;BME280;23035;50.032;21.978;2023-07-30T11:00:12;67908.03;;;25.89;75.63
37132;BME280;23035;50.032;21.978;2023-07-30T11:05:18;67814.88;;;25.06;73.28
37132;BME280;23035;50.032;21.978;2023-07-30T11:10:22;67816.03;;;25.10;78.02
37132;BME280;23035;50.032;21.978;2023-07-30T11:15:26;67867.94;;;25.54;70.66
37132;BME280;23035;50.032;21.978;2023-07-30T11:20:31;67969.47;;;26.54;65.99
37132;BME280;23035;50.032;21.978;2023-07-30T11:25:35;67811.09;;;25.03;75.40
37132;BME280;23035;50.032;21.978;2023-07-30T11:30:39;67817.50;;;25.04;75.92
37132;BME280;23035;50.032;21.978;2023-07-30T11:35:45;67960.69;;;26.41;67.50
37132;BME280;23035;50.032;21.978;2023-07-30T11:40:50;67965.00;;;26.42;68.53
37132;BME280;23035;50.032;21.978;2023-07-30T11:46:11;68022.53;;;26.99;66.56
37132;BME280;23035;50.032;21.978;2023-07-30T11:51:23;68068.69;;;27.42;61.93
37132;BME280;23035;50.032;21.978;2023-07-30T11:56:31;67968.31;;;26.48;67.38
37132;BME280;23035;50.032;21.978;2023-07-30T12:01:36;67879.88;;;25.65;70.99
37132;BME280;23035;50.032;21.978;2023-07-30T12:06:44;68081.81;;;27.59;64.25
37132;BME280;23035;50.032;21.978;2023-07-30T12:11:50;67994.88;;;26.73;63.95
37132;BME280;23035;50.032;21.978;2023-07-30T12:16:55;68000.25;;;26.75;61.74
37132;BME280;23035;50.032;21.978;2023-07-30T12:22:00;68083.84;;;27.54;61.58
37132;BME280;23035;50.032;21.978;2023-07-30T12:27:04;68116.47;;;27.87;60.79
37132;BME280;23035;50.032;21.978;2023-07-30T12:32:08;68094.25;;;27.68;61.18
37132;BME280;23035;50.032;21.978;2023-07-30T12:37:15;67990.50;;;26.66;66.22
37132;BME280;23035;50.032;21.978;2023-07-30T12:42:19;68104.00;;;27.75;60.19
37132;BME280;23035;50.032;21.978;2023-07-30T12:47:23;67977.53;;;26.56;64.55
37132;BME280;23035;50.032;21.978;2023-07-30T12:52:28;68012.25;;;26.89;63.53
37132;BME280;23035;50.032;21.978;2023-07-30T12:57:32;67902.19;;;25.88;67.29
37132;BME280;23035;50.032;21.978;2023-07-30T13:02:36;67869.63;;;25.58;69.38
37132;BME280;23035;50.032;21.978;2023-07-30T13:07:42;67852.28;;;25.41;69.30
37132;BME280;23035;50.032;21.978;2023-07-30T13:12:46;67959.00;;;26.37;65.09
37132;BME280;23035;50.032;21.978;2023-07-30T13:17:49;67992.13;;;26.68;63.22
37132;BME280;23035;50.032;21.978;2023-07-30T13:22:55;68004.63;;;26.82;63.33
37132;BME280;23035;50.032;21.978;2023-07-30T13:27:59;67927.16;;;26.14;68.10
37132;BME280;23035;50.032;21.978;2023-07-30T13:33:03;67933.09;;;26.17;68.96
37132;BME280;23035;50.032;21.978;2023-07-30T13:38:08;68015.47;;;26.92;66.39
37132;BME280;23035;50.032;21.978;2023-07-30T13:43:12;67872.84;;;25.58;74.21
37132;BME280;23035;50.032;21.978;2023-07-30T13:48:16;67900.50;;;25.84;71.82
37132;BME280;23035;50.032;21.978;2023-07-30T13:53:22;67883.59;;;25.66;72.09
37132;BME280;23035;50.032;21.978;2023-07-30T13:58:26;67811.53;;;24.98;76.07
37132;BME280;23035;50.032;21.978;2023-07-30T14:03:30;67798.56;;;24.88;75.45
37132;BME280;23035;50.032;21.978;2023-07-30T14:08:35;67841.41;;;25.29;74.83
37132;BME280;23035;50.032;21.978;2023-07-30T14:13:39;67809.41;;;24.99;78.85
37132;BME280;23035;50.032;21.978;2023-07-30T14:18:43;67770.38;;;24.62;81.27
37132;BME280;23035;50.032;21.978;2023-07-30T14:23:48;67754.56;;;24.42;84.19
37132;BME280;23035;50.032;21.978;2023-07-30T14:28:53;67755.22;;;24.48;84.86
37132;BME280;23035;50.032;21.978;2023-07-30T14:33:57;67776.28;;;24.65;83.86
37132;BME280;23035;50.032;21.978;2023-07-30T14:39:02;67771.97;;;24.61;84.70
37132;BME280;23035;50.032;21.978;2023-07-30T14:44:06;67747.16;;;24.43;86.68
37132;BME280;23035;50.032;21.978;2023-07-30T14:49:10;67763.38;;;24.58;85.92
37132;BME280;23035;50.032;21.978;2023-07-30T14:54:15;67777.97;;;24.69;84.65
37132;BME280;23035;50.032;21.978;2023-07-30T14:59:20;67743.28;;;24.37;82.63
37132;BME280;23035;50.032;21.978;2023-07-30T15:04:24;67820.81;;;25.09;82.14
37132;BME280;23035;50.032;21.978;2023-07-30T15:09:29;67859.81;;;25.46;78.03
37132;BME280;23035;50.032;21.978;2023-07-30T15:14:37;67763.84;;;24.53;85.46
37132;BME280;23035;50.032;21.978;2023-07-30T15:19:41;67753.53;;;24.44;88.34
37132;BME280;23035;50.032;21.978;2023-07-30T15:24:50;67878.19;;;25.61;79.79
37132;BME280;23035;50.032;21.978;2023-07-30T15:29:54;67829.47;;;25.17;82.90
37132;BME280;23035;50.032;21.978;2023-07-30T15:34:58;67778.44;;;24.67;85.86
37132;BME280;23035;50.032;21.978;2023-07-30T15:40:07;67779.06;;;24.70;88.92
37132;BME280;23035;50.032;21.978;2023-07-30T15:45:11;67732.94;;;24.24;89.74
37132;BME280;23035;50.032;21.978;2023-07-30T15:50:15;67710.69;;;24.01;97.02
37132;BME280;23035;50.032;21.978;2023-07-30T15:55:21;67728.75;;;24.28;93.55
37132;BME280;23035;50.032;21.978;2023-07-30T16:00:26;67708.13;;;24.06;95.87
37132;BME280;23035;50.032;21.978;2023-07-30T16:05:29;67853.31;;;25.40;85.89
37132;BME280;23035;50.032;21.978;2023-07-30T16:10:35;67716.78;;;24.14;94.56
37132;BME280;23035;50.032;21.978;2023-07-30T16:15:39;67772.50;;;24.62;92.87
37132;BME280;23035;50.032;21.978;2023-07-30T16:20:43;67693.88;;;23.85;99.43
37132;BME280;23035;50.032;21.978;2023-07-30T16:25:48;67740.53;;;24.31;96.28
37132;BME280;23035;50.032;21.978;2023-07-30T16:30:52;67687.56;;;23.87;97.86
37132;BME280;23035;50.032;21.978;2023-07-30T16:35:56;67785.00;;;24.76;93.76
37132;BME280;23035;50.032;21.978;2023-07-30T16:41:02;67673.91;;;23.69;100.00
37132;BME280;23035;50.032;21.978;2023-07-30T16:46:07;67725.50;;;24.25;99.56
37132;BME280;23035;50.032;21.978;2023-07-30T16:51:12;67758.47;;;24.51;97.24
37132;BME280;23035;50.032;21.978;2023-07-30T16:56:17;67720.44;;;24.10;100.00
37132;BME280;23035;50.032;21.978;2023-07-30T17:01:21;67608.97;;;23.10;100.00
37132;BME280;23035;50.032;21.978;2023-07-30T17:06:25;67657.22;;;23.58;100.00
37132;BME280;23035;50.032;21.978;2023-07-30T17:11:31;67710.78;;;24.06;100.00
37132;BME280;23035;50.032;21.978;2023-07-30T17:16:35;67586.78;;;22.89;100.00
37132;BME280;23035;50.032;21.978;2023-07-30T17:21:51;67619.81;;;23.21;100.00
37132;BME280;23035;50.032;21.978;2023-07-30T17:26:57;67663.69;;;23.62;100.00
37132;BME280;23035;50.032;21.978;2023-07-30T17:32:03;67555.34;;;22.57;100.00
37132;BME280;23035;50.032;21.978;2023-07-30T17:37:08;67573.63;;;22.70;100.00
37132;BME280;23035;50.032;21.978;2023-07-30T17:42:13;67554.25;;;22.56;100.00
37132;BME280;23035;50.032;21.978;2023-07-30T17:47:18;67562.44;;;22.67;100.00
37132;BME280;23035;50.032;21.978;2023-07-30T17:52:22;67513.72;;;22.21;100.00
37132;BME280;23035;50.032;21.978;2023-07-30T17:57:29;67542.34;;;22.45;100.00
37132;BME280;23035;50.032;21.978;2023-07-30T18:02:33;67625.16;;;23.23;100.00
37132;BME280;23035;50.032;21.978;2023-07-30T18:07:40;67603.09;;;23.07;100.00
37132;BME280;23035;50.032;21.978;2023-07-30T18:12:45;67506.66;;;22.12;100.00
37132;BME280;23035;50.032;21.978;2023-07-30T18:17:49;67492.56;;;21.98;100.00
37132;BME280;23035;50.032;21.978;2023-07-30T18:22:53;67471.00;;;21.81;100.00
37132;BME280;23035;50.032;21.978;2023-07-30T18:27:59;67482.28;;;21.89;100.00
37132;BME280;23035;50.032;21.978;2023-07-30T18:33:03;67473.63;;;21.81;100.00
37132;BME280;23035;50.032;21.978;2023-07-30T18:38:12;67509.41;;;22.17;100.00
37132;BME280;23035;50.032;21.978;2023-07-30T18:43:18;67568.31;;;22.70;100.00
37132;BME280;23035;50.032;21.978;2023-07-30T18:48:22;67564.53;;;22.66;100.00
37132;BME280;23035;50.032;21.978;2023-07-30T18:53:27;67422.28;;;21.32;100.00
37132;BME280;23035;50.032;21.978;2023-07-30T18:58:32;67513.16;;;22.18;100.00
37132;BME280;23035;50.032;21.978;2023-07-30T19:03:36;67444.31;;;21.48;100.00
37132;BME280;23035;50.032;21.978;2023-07-30T19:08:41;67508.88;;;22.16;100.00
37132;BME280;23035;50.032;21.978;2023-07-30T19:13:46;67454.16;;;21.62;100.00
37132;BME280;23035;50.032;21.978;2023-07-30T19:18:52;67461.78;;;21.72;100.00
37132;BME280;23035;50.032;21.978;2023-07-30T19:23:56;67438.00;;;21.50;100.00
37132;BME280;23035;50.032;21.978;2023-07-30T19:29:01;67395.22;;;21.07;100.00
37132;BME280;23035;50.032;21.978;2023-07-30T19:34:07;67316.84;;;20.33;100.00
37132;BME280;23035;50.032;21.978;2023-07-30T19:39:12;67357.41;;;20.71;100.00
37132;BME280;23035;50.032;21.978;2023-07-30T19:44:17;67439.03;;;21.48;100.00
37132;BME280;23035;50.032;21.978;2023-07-30T19:49:21;67441.13;;;21.47;100.00
37132;BME280;23035;50.032;21.978;2023-07-30T19:54:26;67457.97;;;21.66;100.00
37132;BME280;23035;50.032;21.978;2023-07-30T19:59:32;67428.16;;;21.35;100.00
37132;BME280;23035;50.032;21.978;2023-07-30T20:04:37;67439.56;;;21.48;100.00
37132;BME280;23035;50.032;21.978;2023-07-30T20:09:41;67427.75;;;21.40;100.00
37132;BME280;23035;50.032;21.978;2023-07-30T20:14:47;67510.97;;;22.16;100.00
37132;BME280;23035;50.032;21.978;2023-07-30T20:19:51;67524.44;;;22.26;100.00
37132;BME280;23035;50.032;21.978;2023-07-30T20:24:55;67486.69;;;21.95;100.00
37132;BME280;23035;50.032;21.978;2023-07-30T20:30:01;67533.09;;;22.34;100.00
37132;BME280;23035;50.032;21.978;2023-07-30T20:35:06;67535.25;;;22.36;100.00
37132;BME280;23035;50.032;21.978;2023-07-30T20:40:10;67469.91;;;21.80;100.00
37132;BME280;23035;50.032;21.978;2023-07-30T20:45:16;67435.25;;;21.44;100.00
37132;BME280;23035;50.032;21.978;2023-07-30T20:50:20;67354.66;;;20.66;100.00
37132;BME280;23035;50.032;21.978;2023-07-30T20:55:25;67353.69;;;20.70;100.00
37132;BME280;23035;50.032;21.978;2023-07-30T21:00:31;67324.91;;;20.38;100.00
37132;BME280;23035;50.032;21.978;2023-07-30T21:05:35;67350.31;;;20.62;100.00
37132;BME280;23035;50.032;21.978;2023-07-30T21:10:39;67367.72;;;20.83;100.00
37132;BME280;23035;50.032;21.978;2023-07-30T21:15:46;67281.75;;;20.00;100.00
37132;BME280;23035;50.032;21.978;2023-07-30T21:20:51;67284.50;;;20.05;100.00
37132;BME280;23035;50.032;21.978;2023-07-30T21:25:55;67339.16;;;20.59;100.00
37132;BME280;23035;50.032;21.978;2023-07-30T21:31:04;67405.63;;;21.22;100.00
37132;BME280;23035;50.032;21.978;2023-07-30T21:36:08;67384.28;;;20.91;100.00
37132;BME280;23035;50.032;21.978;2023-07-30T21:41:13;67332.13;;;20.52;100.00
37132;BME280;23035;50.032;21.978;2023-07-30T21:46:18;67380.56;;;20.90;100.00
37132;BME280;23035;50.032;21.978;2023-07-30T21:51:22;67311.47;;;20.28;100.00
37132;BME280;23035;50.032;21.978;2023-07-30T21:56:26;67380.03;;;20.90;100.00
37132;BME280;23035;50.032;21.978;2023-07-30T22:01:32;67447.06;;;21.53;100.00
37132;BME280;23035;50.032;21.978;2023-07-30T22:06:36;67380.28;;;21.00;100.00
37132;BME280;23035;50.032;21.978;2023-07-30T22:11:40;67434.78;;;21.46;100.00
37132;BME280;23035;50.032;21.978;2023-07-30T22:16:45;67433.16;;;21.45;100.00
37132;BME280;23035;50.032;21.978;2023-07-30T22:21:50;67389.91;;;21.04;100.00
37132;BME280;23035;50.032;21.978;2023-07-30T22:26:54;67407.13;;;21.18;100.00
37132;BME280;23035;50.032;21.978;2023-07-30T22:31:59;67331.53;;;20.49;100.00
37132;BME280;23035;50.032;21.978;2023-07-30T22:37:03;67278.09;;;20.01;100.00
37132;BME280;23035;50.032;21.978;2023-07-30T22:42:07;67308.22;;;20.25;100.00
37132;BME280;23035;50.032;21.978;2023-07-30T22:47:13;67273.78;;;19.97;100.00
37132;BME280;23035;50.032;21.978;2023-07-30T22:52:17;67249.94;;;19.72;100.00
37132;BME280;23035;50.032;21.978;2023-07-30T22:57:21;67227.78;;;19.52;100.00
37132;BME280;23035;50.032;21.978;2023-07-30T23:02:26;67204.53;;;19.27;100.00
37132;BME280;23035;50.032;21.978;2023-07-30T23:07:30;67152.09;;;18.75;100.00
37132;BME280;23035;50.032;21.978;2023-07-30T23:12:34;67239.63;;;19.60;100.00
37132;BME280;23035;50.032;21.978;2023-07-30T23:17:40;67266.63;;;19.86;100.00
37132;BME280;23035;50.032;21.978;2023-07-30T23:22:43;67181.84;;;19.06;100.00
37132;BME280;23035;50.032;21.978;2023-07-30T23:27:47;67160.78;;;18.86;100.00
37132;BME280;23035;50.032;21.978;2023-07-30T23:32:53;67212.59;;;19.35;100.00
37132;BME280;23035;50.032;21.978;2023-07-30T23:37:57;67191.00;;;19.14;100.00
37132;BME280;23035;50.032;21.978;2023-07-30T23:43:01;67270.34;;;19.87;100.00
37132;BME280;23035;50.032;21.978;2023-07-30T23:48:09;67220.72;;;19.42;100.00
37132;BME280;23035;50.032;21.978;2023-07-30T23:53:13;67215.25;;;19.35;100.00
37132;BME280;23035;50.032;21.978;2023-07-30T23:58:17;67137.66;;;18.67;100.00
